Time;durP1;ratioP1;P1;durP2;ratioP2;P2;SDS_P1;SDS_P2;PMS_P1;PMS_P2;Temp;Humidity;BMP_temperature;BMP_pressure;BME280_temperature;BME280_humidity;BME280_pressure;Samples;Min_cycle;Max_cycle;Signal;HPM_P1;HPM_P2
2021/03/10 00:01:11;;;;;;;44.55;25.05;;;6.30;99.90;;;;;;5070869;28;20486;-46
2021/03/10 00:03:37;;;;;;;44.47;26.58;;;6.30;99.90;;;;;;5071570;28;20032;-46
2021/03/10 00:06:05;;;;;;;48.38;27.00;;;6.30;99.90;;;;;;5070757;28;20478;-45
2021/03/10 00:08:30;;;;;;;40.35;25.40;;;6.20;99.90;;;;;;5069994;28;20043;-47
2021/03/10 00:10:56;;;;;;;42.25;26.35;;;6.10;99.90;;;;;;5070239;28;20032;-48
2021/03/10 00:13:21;;;;;;;43.88;26.05;;;6.10;99.90;;;;;;5070743;28;20029;-46
2021/03/10 00:15:47;;;;;;;43.60;25.60;;;6.00;99.90;;;;;;5070479;28;20020;-46
2021/03/10 00:18:12;;;;;;;48.35;25.90;;;5.90;99.90;;;;;;5070882;28;20020;-47
2021/03/10 00:20:38;;;;;;;44.72;27.13;;;5.90;99.90;;;;;;5071385;28;20028;-47
2021/03/10 00:23:03;;;;;;;43.70;26.65;;;6.00;99.90;;;;;;5071328;28;20028;-48
2021/03/10 00:25:29;;;;;;;41.42;25.92;;;6.00;99.90;;;;;;5071036;28;20490;-45
2021/03/10 00:27:55;;;;;;;42.08;25.05;;;6.00;99.90;;;;;;5071252;28;20116;-51
2021/03/10 00:30:20;;;;;;;45.08;27.60;;;6.00;99.90;;;;;;5071284;28;20582;-46
2021/03/10 00:32:46;;;;;;;45.90;26.75;;;6.00;99.90;;;;;;5070885;28;20032;-46
2021/03/10 00:35:12;;;;;;;48.50;28.38;;;5.90;99.90;;;;;;5071073;28;20528;-46
2021/03/10 00:37:37;;;;;;;53.80;28.75;;;6.00;99.90;;;;;;5071068;28;20067;-48
2021/03/10 00:40:03;;;;;;;44.05;25.95;;;5.90;99.90;;;;;;5071204;28;20096;-45
2021/03/10 00:42:29;;;;;;;47.60;27.75;;;6.00;99.90;;;;;;5086582;22;20063;-44
2021/03/10 00:44:54;;;;;;;44.28;25.95;;;5.90;99.90;;;;;;5052861;28;20021;-42
2021/03/10 00:47:21;;;;;;;48.25;27.52;;;5.90;99.90;;;;;;5070877;28;20021;-42
2021/03/10 00:49:46;;;;;;;50.28;28.45;;;5.80;99.90;;;;;;5071610;28;20024;-42
2021/03/10 00:52:12;;;;;;;44.90;26.88;;;5.90;99.90;;;;;;5069792;28;20024;-44
2021/03/10 00:54:39;;;;;;;49.63;28.33;;;5.80;99.90;;;;;;5070009;28;20027;-47
2021/03/10 00:57:05;;;;;;;45.83;27.17;;;5.80;99.90;;;;;;5052755;28;20027;-43
2021/03/10 00:59:30;;;;;;;41.03;25.58;;;5.80;99.90;;;;;;5070690;28;20017;-41
2021/03/10 01:01:56;;;;;;;51.15;28.15;;;5.80;99.90;;;;;;5068863;28;20030;-51
2021/03/10 01:04:21;;;;;;;42.13;25.00;;;5.80;99.90;;;;;;5069595;28;20085;-44
2021/03/10 01:06:47;;;;;;;48.50;27.38;;;5.80;99.90;;;;;;5070530;28;20021;-47
2021/03/10 01:09:13;;;;;;;44.58;25.95;;;5.80;99.90;;;;;;5070482;28;20141;-46
2021/03/10 01:11:39;;;;;;;44.45;25.80;;;5.90;99.90;;;;;;5070515;28;20544;-43
2021/03/10 01:14:04;;;;;;;45.95;26.67;;;5.90;99.90;;;;;;5069526;28;20074;-47
2021/03/10 01:16:30;;;;;;;44.33;25.42;;;5.90;99.90;;;;;;5070343;28;20020;-43
2021/03/10 01:18:57;;;;;;;42.50;26.38;;;5.80;99.90;;;;;;5070526;28;20070;-42
2021/03/10 01:21:23;;;;;;;45.97;27.48;;;5.80;99.90;;;;;;5070298;28;20063;-48
2021/03/10 01:23:49;;;;;;;41.55;25.80;;;5.80;99.90;;;;;;5069484;28;20101;-44
2021/03/10 01:26:14;;;;;;;49.92;26.40;;;5.80;99.90;;;;;;5070175;28;20028;-43
2021/03/10 01:28:40;;;;;;;44.83;26.02;;;5.70;99.90;;;;;;5052271;28;20177;-42
2021/03/10 01:31:06;;;;;;;43.85;26.23;;;5.70;99.90;;;;;;5052161;28;20032;-46
2021/03/10 01:33:31;;;;;;;47.90;26.95;;;5.70;99.90;;;;;;5069408;28;20032;-50
2021/03/10 01:35:57;;;;;;;41.92;25.25;;;5.70;99.90;;;;;;5070216;28;20032;-47
2021/03/10 01:38:22;;;;;;;48.80;26.50;;;5.80;99.90;;;;;;5070251;28;20039;-42
2021/03/10 01:40:48;;;;;;;40.78;24.45;;;5.80;99.90;;;;;;5070372;28;20435;-47
2021/03/10 01:43:13;;;;;;;43.17;25.50;;;5.80;99.90;;;;;;5069583;28;20036;-44
2021/03/10 01:45:39;;;;;;;43.53;26.35;;;5.80;99.90;;;;;;5070158;28;20386;-47
2021/03/10 01:48:08;;;;;;;40.22;24.95;;;5.70;99.90;;;;;;5069968;28;20466;-43
2021/03/10 01:50:34;;;;;;;41.85;24.60;;;5.70;99.90;;;;;;5070202;28;20052;-45
2021/03/10 01:53:01;;;;;;;40.53;26.73;;;5.70;99.90;;;;;;5069300;28;20035;-44
2021/03/10 01:55:27;;;;;;;40.95;25.42;;;5.80;99.90;;;;;;5070138;28;20029;-41
2021/03/10 01:57:54;;;;;;;40.22;24.02;;;5.80;99.90;;;;;;5070020;28;20074;-42
2021/03/10 02:00:20;;;;;;;39.72;25.30;;;5.80;99.90;;;;;;5069969;28;20467;-43
2021/03/10 02:02:45;;;;;;;42.40;24.70;;;5.70;99.90;;;;;;5069139;28;20036;-44
2021/03/10 02:05:15;;;;;;;41.67;24.10;;;5.80;99.90;;;;;;5069953;28;20401;-42
2021/03/10 02:07:50;;;;;;;43.80;24.70;;;5.80;99.90;;;;;;5070175;28;20025;-43
2021/03/10 02:10:36;;;;;;;36.28;23.33;;;5.80;99.90;;;;;;5069874;28;20020;-41
2021/03/10 02:13:24;;;;;;;36.67;22.55;;;5.80;99.90;;;;;;5068850;28;20040;-40
2021/03/10 02:16:06;;;;;;;40.58;24.05;;;5.80;99.90;;;;;;5071271;28;20064;-42
2021/03/10 02:18:45;;;;;;;38.30;24.08;;;5.80;99.90;;;;;;5073889;28;20025;-42
2021/03/10 02:21:27;;;;;;;38.38;22.88;;;5.80;99.90;;;;;;5073540;28;20031;-50
2021/03/10 02:24:03;;;;;;;44.15;25.15;;;5.80;99.90;;;;;;5072832;28;20086;-47
2021/03/10 02:26:39;;;;;;;41.20;23.83;;;5.70;99.90;;;;;;5073459;28;20040;-45
2021/03/10 02:29:07;;;;;;;38.55;23.92;;;5.80;99.90;;;;;;5073540;28;20488;-48
2021/03/10 02:31:37;;;;;;;38.58;24.05;;;5.90;99.90;;;;;;5055386;28;20123;-46
2021/03/10 02:34:05;;;;;;;40.03;24.35;;;5.90;99.90;;;;;;5072623;28;20363;-48
2021/03/10 02:36:32;;;;;;;40.22;22.63;;;5.90;99.90;;;;;;5055159;28;20027;-45
2021/03/10 02:39:00;;;;;;;39.92;23.40;;;5.80;99.90;;;;;;5073588;28;20032;-42
2021/03/10 02:41:29;;;;;;;37.45;22.48;;;5.90;99.90;;;;;;5055592;28;20093;-42
2021/03/10 02:43:55;;;;;;;38.08;22.88;;;5.70;99.90;;;;;;5054833;28;20032;-42
2021/03/10 02:46:21;;;;;;;33.92;22.10;;;5.70;99.90;;;;;;5055427;28;20082;-51
2021/03/10 02:48:47;;;;;;;38.95;24.23;;;5.70;99.90;;;;;;5073671;28;20025;-50
2021/03/10 02:51:16;;;;;;;35.35;22.08;;;5.80;99.90;;;;;;5073658;28;20025;-49
2021/03/10 02:53:42;;;;;;;33.30;21.55;;;6.00;99.90;;;;;;5054357;28;20508;-46
2021/03/10 02:56:11;;;;;;;36.38;23.40;;;6.00;99.90;;;;;;5073000;28;20036;-46
2021/03/10 02:58:38;;;;;;;36.65;23.77;;;6.00;99.90;;;;;;5072914;28;20389;-50
2021/03/10 03:01:04;;;;;;;36.47;23.40;;;5.90;99.90;;;;;;5072972;28;20028;-43
2021/03/10 03:03:30;;;;;;;31.58;20.95;;;6.00;99.90;;;;;;5072229;28;20025;-44
2021/03/10 03:05:55;;;;;;;34.13;21.92;;;6.00;99.90;;;;;;5055147;28;20109;-44
2021/03/10 03:08:21;;;;;;;36.03;21.67;;;6.00;99.90;;;;;;5072944;28;20028;-42
2021/03/10 03:10:47;;;;;;;33.97;21.70;;;6.00;99.90;;;;;;5073021;28;20170;-44
2021/03/10 03:13:14;;;;;;;34.50;21.40;;;6.00;99.90;;;;;;5053944;28;20037;-42
2021/03/10 03:15:43;;;;;;;34.60;22.20;;;6.00;99.90;;;;;;5072688;28;20390;-43
2021/03/10 03:18:10;;;;;;;37.20;22.55;;;6.00;99.90;;;;;;5072630;28;20389;-42
2021/03/10 03:20:35;;;;;;;35.20;22.30;;;5.90;99.90;;;;;;5072555;28;20096;-42
2021/03/10 03:23:05;;;;;;;32.78;20.83;;;5.90;99.90;;;;;;5071791;28;20104;-43
2021/03/10 03:25:38;;;;;;;34.22;22.35;;;6.00;99.90;;;;;;5072746;28;20485;-45
2021/03/10 03:28:05;;;;;;;36.97;20.95;;;6.00;99.90;;;;;;5072739;28;20555;-42
2021/03/10 03:30:36;;;;;;;32.67;21.52;;;6.00;99.90;;;;;;5072424;28;20020;-43
2021/03/10 03:33:11;;;;;;;35.65;21.10;;;6.00;99.90;;;;;;5071533;28;20024;-42
2021/03/10 03:35:37;;;;;;;35.42;22.52;;;6.00;99.90;;;;;;5072488;28;20033;-44
2021/03/10 03:38:04;;;;;;;38.83;22.00;;;6.00;99.90;;;;;;5072411;28;20445;-45
2021/03/10 03:40:30;;;;;;;37.97;23.15;;;5.90;99.90;;;;;;5072191;28;20062;-42
2021/03/10 03:42:56;;;;;;;36.72;22.40;;;6.00;99.90;;;;;;5071220;28;20103;-45
2021/03/10 03:45:22;;;;;;;39.53;22.88;;;6.00;99.90;;;;;;5072066;28;20067;-42
2021/03/10 03:47:52;;;;;;;39.67;22.67;;;5.90;99.90;;;;;;5072025;28;20021;-44
2021/03/10 03:50:19;;;;;;;35.10;22.17;;;5.80;99.90;;;;;;5054042;28;20028;-42
2021/03/10 03:52:45;;;;;;;36.05;22.33;;;5.70;99.90;;;;;;5053261;28;20123;-46
2021/03/10 03:55:11;;;;;;;35.25;22.95;;;5.60;99.90;;;;;;5071830;28;20036;-43
2021/03/10 03:57:38;;;;;;;33.08;22.17;;;5.60;99.90;;;;;;5071770;28;20078;-46
2021/03/10 04:00:10;;;;;;;36.63;22.30;;;5.70;99.90;;;;;;5071935;28;20021;-46
2021/03/10 04:02:36;;;;;;;36.17;21.20;;;5.60;99.90;;;;;;5070757;28;20094;-41
2021/03/10 04:05:02;;;;;;;34.63;23.30;;;5.70;99.90;;;;;;5072931;28;20049;-43
2021/03/10 04:07:27;;;;;;;34.05;21.85;;;5.70;99.90;;;;;;5072924;28;20033;-42
2021/03/10 04:09:53;;;;;;;34.70;22.33;;;5.80;99.90;;;;;;5073072;28;20073;-45
2021/03/10 04:12:18;;;;;;;36.17;23.05;;;5.80;99.90;;;;;;5072838;28;20388;-47
2021/03/10 04:14:44;;;;;;;38.30;22.50;;;5.80;99.90;;;;;;5071980;28;20115;-42
2021/03/10 04:17:10;;;;;;;35.88;23.50;;;5.70;99.90;;;;;;5072172;28;20029;-43
2021/03/10 04:19:35;;;;;;;38.20;23.45;;;5.60;99.90;;;;;;5071953;28;20466;-47
2021/03/10 04:22:00;;;;;;;37.25;23.48;;;5.60;99.90;;;;;;5071576;28;20392;-47
2021/03/10 04:24:26;;;;;;;34.78;22.33;;;5.60;99.90;;;;;;5052920;28;20021;-42
2021/03/10 04:26:52;;;;;;;38.35;23.25;;;5.60;99.90;;;;;;5072007;28;20072;-46
2021/03/10 04:29:17;;;;;;;40.72;24.45;;;5.70;99.90;;;;;;5072150;28;20555;-43
2021/03/10 04:31:43;;;;;;;43.40;26.65;;;5.70;99.90;;;;;;5072685;28;20031;-48
2021/03/10 04:34:08;;;;;;;39.70;23.50;;;5.70;99.90;;;;;;5071543;28;20130;-45
2021/03/10 04:36:34;;;;;;;42.15;24.25;;;5.60;99.90;;;;;;5072245;28;20394;-48
2021/03/10 04:38:59;;;;;;;39.88;26.15;;;5.60;99.90;;;;;;5070799;28;20035;-47
2021/03/10 04:41:25;;;;;;;38.05;24.52;;;5.60;99.90;;;;;;5071116;28;20032;-43
2021/03/10 04:43:50;;;;;;;43.88;25.02;;;5.50;99.90;;;;;;5070120;28;20040;-43
2021/03/10 04:46:16;;;;;;;49.95;26.63;;;5.50;99.90;;;;;;5070844;28;20028;-45
2021/03/10 04:48:41;;;;;;;38.78;24.83;;;5.50;99.90;;;;;;5070885;28;20027;-46
2021/03/10 04:51:07;;;;;;;42.13;24.63;;;5.40;99.90;;;;;;5071270;28;20381;-45
2021/03/10 04:53:32;;;;;;;40.22;25.08;;;5.40;99.90;;;;;;5052673;28;20482;-48
2021/03/10 04:55:58;;;;;;;43.88;24.85;;;5.50;99.90;;;;;;5071414;28;20043;-46
2021/03/10 04:58:23;;;;;;;44.20;25.67;;;5.50;99.90;;;;;;5071434;28;20029;-47
2021/03/10 05:00:49;;;;;;;43.25;26.65;;;5.50;99.90;;;;;;5069767;28;20028;-44
2021/03/10 05:03:14;;;;;;;43.67;26.40;;;5.40;99.90;;;;;;5070347;28;20024;-49
2021/03/10 05:05:40;;;;;;;40.72;25.08;;;5.40;99.90;;;;;;5070828;28;20024;-44
2021/03/10 05:08:06;;;;;;;42.63;26.73;;;5.40;99.90;;;;;;5070831;28;20021;-49
2021/03/10 05:10:31;;;;;;;39.67;25.70;;;5.30;99.90;;;;;;5071091;28;20021;-43
2021/03/10 05:12:57;;;;;;;52.25;28.88;;;5.30;99.90;;;;;;5069962;28;20082;-48
2021/03/10 05:15:22;;;;;;;42.42;27.25;;;5.30;99.90;;;;;;5070729;28;20042;-43
2021/03/10 05:17:48;;;;;;;43.08;26.27;;;5.30;99.90;;;;;;5070921;28;20028;-45
2021/03/10 05:20:14;;;;;;;42.10;25.02;;;5.30;99.90;;;;;;5070546;28;20024;-46
2021/03/10 05:22:39;;;;;;;46.50;26.75;;;5.30;99.90;;;;;;5069660;28;20028;-41
2021/03/10 05:25:07;;;;;;;43.33;26.13;;;5.40;99.90;;;;;;5070553;28;20036;-46
2021/03/10 05:27:33;;;;;;;46.72;25.95;;;5.30;99.90;;;;;;5070506;28;20094;-43
2021/03/10 05:30:04;;;;;;;40.55;26.95;;;5.30;99.90;;;;;;5070447;28;20696;-45
2021/03/10 05:32:30;;;;;;;43.50;26.35;;;5.20;99.90;;;;;;5069779;28;20505;-46
2021/03/10 05:34:55;;;;;;;42.75;27.00;;;5.20;99.90;;;;;;5051727;28;20024;-43
2021/03/10 05:37:21;;;;;;;44.67;27.80;;;5.30;99.90;;;;;;5070425;28;20031;-43
2021/03/10 05:39:46;;;;;;;41.42;26.70;;;5.30;99.90;;;;;;5070169;28;20108;-43
2021/03/10 05:42:12;;;;;;;48.15;29.73;;;5.30;99.90;;;;;;5051871;28;20029;-48
2021/03/10 05:44:38;;;;;;;43.33;26.67;;;5.40;99.90;;;;;;5069576;28;20028;-44
2021/03/10 05:47:05;;;;;;;48.60;28.08;;;5.30;99.90;;;;;;5070196;28;20025;-42
2021/03/10 05:49:31;;;;;;;41.10;25.83;;;5.30;99.90;;;;;;5069994;28;20079;-47
2021/03/10 05:51:57;;;;;;;47.25;28.20;;;5.30;99.90;;;;;;5073040;28;20028;-48
2021/03/10 05:54:25;;;;;;;48.90;29.17;;;5.30;99.90;;;;;;5073220;28;20024;-44
2021/03/10 05:56:51;;;;;;;43.95;27.83;;;5.30;99.90;;;;;;5056124;28;20074;-47
2021/03/10 05:59:16;;;;;;;40.17;25.27;;;5.40;99.90;;;;;;5074207;28;20024;-49
2021/03/10 06:01:42;;;;;;;42.53;26.65;;;5.40;99.90;;;;;;5074172;28;20119;-44
2021/03/10 06:04:08;;;;;;;42.60;25.58;;;5.50;99.90;;;;;;5073424;28;20413;-43
2021/03/10 06:06:35;;;;;;;44.95;27.40;;;5.40;99.90;;;;;;5074003;28;20036;-44
2021/03/10 06:09:19;;;;;;;44.72;26.67;;;5.40;99.90;;;;;;5056376;28;20566;-45
2021/03/10 06:12:02;;;;;;;44.92;28.65;;;5.40;99.90;;;;;;5073755;28;20025;-46
2021/03/10 06:14:28;;;;;;;40.85;26.98;;;5.50;99.90;;;;;;5072808;28;20017;-41
2021/03/10 06:17:05;;;;;;;42.35;26.90;;;5.40;99.90;;;;;;5055785;28;20031;-44
2021/03/10 06:19:44;;;;;;;46.88;27.92;;;5.40;99.90;;;;;;5055938;28;20028;-49
2021/03/10 06:22:11;;;;;;;45.15;27.52;;;5.40;99.90;;;;;;5056033;28;20046;-43
2021/03/10 06:24:36;;;;;;;38.75;25.40;;;5.50;99.90;;;;;;5056001;28;20119;-43
2021/03/10 06:27:02;;;;;;;45.65;27.83;;;5.60;99.90;;;;;;5055643;28;20120;-44
2021/03/10 06:29:28;;;;;;;44.72;27.88;;;5.60;99.90;;;;;;5074957;28;20033;-45
2021/03/10 06:32:09;;;;;;;46.97;28.90;;;5.50;99.90;;;;;;5055553;28;20119;-45
2021/03/10 06:34:44;;;;;;;43.33;25.92;;;5.50;99.90;;;;;;5072890;28;20036;-46
2021/03/10 06:37:11;;;;;;;48.38;27.08;;;5.40;99.90;;;;;;5056141;28;20395;-42
2021/03/10 06:39:37;;;;;;;42.22;24.70;;;5.40;99.90;;;;;;5075910;28;20048;-48
2021/03/10 06:44:56;;;;;;;47.60;27.48;;;5.60;99.90;;;;;;5090250;28;20055;-47
2021/03/10 06:47:21;;;;;;;45.65;27.08;;;5.50;99.90;;;;;;5093410;28;20073;-45
2021/03/10 06:49:52;;;;;;;45.97;28.10;;;5.40;99.90;;;;;;5093420;28;20020;-45
2021/03/10 06:52:18;;;;;;;44.22;27.67;;;5.40;99.90;;;;;;5093219;28;20439;-48
2021/03/10 06:54:55;;;;;;;41.92;26.98;;;5.50;99.90;;;;;;5092577;28;20028;-47
2021/03/10 06:57:21;;;;;;;42.90;25.92;;;5.40;99.90;;;;;;5093282;28;20027;-46
2021/03/10 06:59:51;;;;;;;43.08;28.13;;;5.50;99.90;;;;;;5093430;28;20021;-45
2021/03/10 07:02:25;;;;;;;43.25;28.20;;;5.60;99.90;;;;;;5092715;28;20047;-46
2021/03/10 07:04:52;;;;;;;45.58;27.73;;;5.70;99.90;;;;;;5074315;28;20016;-46
2021/03/10 07:07:18;;;;;;;43.33;26.83;;;5.80;99.90;;;;;;5093274;28;20027;-46
2021/03/10 07:09:45;;;;;;;41.65;28.00;;;5.80;99.90;;;;;;5093383;28;20020;-49
2021/03/10 07:12:13;;;;;;;41.78;26.73;;;5.90;99.90;;;;;;5093588;28;20021;-46
2021/03/10 07:14:39;;;;;;;45.45;26.80;;;5.90;99.90;;;;;;5092567;28;20027;-46
2021/03/10 07:17:06;;;;;;;44.67;28.02;;;5.90;99.90;;;;;;5092134;28;20036;-49
2021/03/10 07:19:32;;;;;;;43.13;27.85;;;5.90;99.90;;;;;;5081132;28;20031;-49
2021/03/10 07:22:02;;;;;;;42.38;27.38;;;6.00;99.90;;;;;;5093173;28;20039;-48
2021/03/10 07:24:39;;;;;;;47.42;27.83;;;6.00;99.90;;;;;;5079450;28;20486;-53
2021/03/10 07:27:08;;;;;;;46.15;29.15;;;6.00;99.90;;;;;;5093577;28;20032;-54
2021/03/10 07:29:35;;;;;;;48.53;29.70;;;6.00;99.90;;;;;;5082562;28;20036;-54
2021/03/10 07:32:03;;;;;;;46.78;27.58;;;6.10;99.90;;;;;;5072364;28;20025;-48
2021/03/10 07:34:29;;;;;;;50.25;30.20;;;6.00;99.90;;;;;;5053265;28;20028;-50
2021/03/10 07:36:55;;;;;;;46.58;28.42;;;5.90;99.90;;;;;;5054202;28;20496;-47
2021/03/10 07:39:23;;;;;;;48.75;27.40;;;6.00;99.90;;;;;;5072347;28;20024;-51
2021/03/10 07:41:49;;;;;;;44.97;27.77;;;6.00;99.90;;;;;;5084071;28;20074;-45
2021/03/10 07:44:25;;;;;;;44.83;27.88;;;6.20;99.90;;;;;;5091300;28;20039;-46
2021/03/10 07:47:09;;;;;;;43.10;28.23;;;6.20;99.90;;;;;;5092255;28;20103;-50
2021/03/10 07:49:35;;;;;;;44.47;27.15;;;6.30;99.90;;;;;;5092172;28;20042;-53
2021/03/10 07:52:08;;;;;;;42.10;27.70;;;6.40;99.90;;;;;;5091905;28;20032;-49
2021/03/10 07:54:35;;;;;;;45.15;27.42;;;6.40;99.90;;;;;;5091101;28;20527;-51
2021/03/10 07:57:15;;;;;;;42.75;26.65;;;6.40;99.90;;;;;;5092032;28;20199;-49
2021/03/10 07:59:57;;;;;;;41.20;26.25;;;6.50;99.90;;;;;;5092030;28;20119;-49
2021/03/10 08:02:25;;;;;;;43.03;27.70;;;6.50;99.90;;;;;;5091372;28;20023;-53
2021/03/10 08:04:59;;;;;;;48.35;27.58;;;6.50;99.90;;;;;;5091274;28;20028;-49
2021/03/10 08:07:28;;;;;;;40.90;25.17;;;6.50;99.90;;;;;;5091980;28;20176;-49
2021/03/10 08:09:54;;;;;;;40.85;25.98;;;6.50;99.90;;;;;;5091804;28;20032;-50
2021/03/10 08:12:32;;;;;;;40.97;26.20;;;6.60;99.90;;;;;;5091400;28;20024;-50
2021/03/10 08:14:57;;;;;;;46.20;27.17;;;6.70;99.90;;;;;;5090846;28;20200;-46
2021/03/10 08:17:25;;;;;;;43.83;27.80;;;6.80;99.90;;;;;;5091649;28;20027;-47
2021/03/10 08:19:52;;;;;;;37.47;24.05;;;6.90;99.90;;;;;;5080537;28;20032;-47
2021/03/10 08:22:20;;;;;;;42.65;26.80;;;6.80;99.90;;;;;;5071109;28;20550;-49
2021/03/10 08:24:46;;;;;;;38.78;26.15;;;6.80;99.90;;;;;;5078237;28;20476;-49
2021/03/10 08:27:11;;;;;;;41.50;26.15;;;6.80;99.90;;;;;;5091516;28;20024;-52
2021/03/10 08:29:46;;;;;;;38.92;25.30;;;6.80;99.90;;;;;;5087655;28;20024;-48
2021/03/10 08:32:23;;;;;;;41.78;26.55;;;6.80;99.90;;;;;;5077430;28;20489;-48
2021/03/10 08:34:49;;;;;;;40.40;25.08;;;6.90;99.90;;;;;;5068756;28;20040;-46
2021/03/10 08:37:15;;;;;;;38.38;24.02;;;7.00;99.90;;;;;;5055861;28;20032;-54
2021/03/10 08:39:45;;;;;;;35.70;24.20;;;7.10;99.90;;;;;;5070983;28;20020;-57
2021/03/10 08:42:15;;;;;;;38.38;24.08;;;7.10;99.90;;;;;;5084744;28;20017;-52
2021/03/10 08:44:45;;;;;;;38.13;25.42;;;7.10;99.90;;;;;;5082813;28;20028;-53
2021/03/10 08:47:13;;;;;;;36.42;25.08;;;7.20;99.90;;;;;;5075273;28;20511;-50
2021/03/10 08:49:39;;;;;;;42.08;24.85;;;7.40;99.90;;;;;;5091513;28;20036;-49
2021/03/10 08:52:12;;;;;;;34.40;21.92;;;7.50;99.90;;;;;;5080138;28;20089;-54
2021/03/10 08:54:49;;;;;;;34.53;23.50;;;7.70;99.90;;;;;;5070983;28;20039;-52
2021/03/10 08:57:16;;;;;;;39.35;23.73;;;8.00;99.90;;;;;;5071551;28;20068;-53
2021/03/10 08:59:42;;;;;;;35.80;23.00;;;8.00;99.90;;;;;;5079119;28;20478;-49
2021/03/10 09:02:08;;;;;;;33.35;23.13;;;8.10;99.90;;;;;;5074594;28;20081;-49
2021/03/10 09:04:34;;;;;;;35.15;24.10;;;8.30;99.90;;;;;;5066476;28;20081;-50
2021/03/10 09:07:01;;;;;;;32.30;22.40;;;8.30;99.90;;;;;;5078306;28;20028;-56
2021/03/10 09:09:31;;;;;;;33.85;22.83;;;8.40;99.90;;;;;;5102371;28;20031;-50
2021/03/10 09:11:57;;;;;;;39.08;23.77;;;8.50;99.90;;;;;;5079808;28;20030;-50
2021/03/10 09:14:23;;;;;;;34.10;23.45;;;8.40;99.90;;;;;;5077267;28;20024;-53
2021/03/10 09:16:59;;;;;;;36.95;24.13;;;8.40;99.90;;;;;;5074865;28;20070;-46
2021/03/10 09:19:48;;;;;;;34.78;21.67;;;8.30;99.90;;;;;;5071649;28;20520;-50
2021/03/10 09:22:19;;;;;;;33.47;23.10;;;8.50;99.90;;;;;;5057248;28;20068;-48
2021/03/10 09:24:58;;;;;;;37.33;23.83;;;8.50;99.90;;;;;;5083427;28;20032;-52
2021/03/10 09:27:26;;;;;;;37.45;23.92;;;8.70;99.90;;;;;;5090579;28;20389;-48
2021/03/10 09:29:54;;;;;;;33.28;23.90;;;8.70;99.90;;;;;;5070669;28;20020;-50
2021/03/10 09:32:20;;;;;;;35.78;24.08;;;8.90;99.40;;;;;;5090160;28;20486;-49
2021/03/10 09:34:47;;;;;;;36.95;23.52;;;8.90;99.20;;;;;;5076310;28;20032;-49
2021/03/10 09:37:13;;;;;;;35.42;24.02;;;9.00;99.40;;;;;;5070374;28;20021;-51
2021/03/10 09:39:50;;;;;;;32.95;22.63;;;9.10;99.10;;;;;;5071401;28;20052;-48
2021/03/10 09:42:16;;;;;;;33.40;22.73;;;8.90;98.90;;;;;;5069948;28;20017;-51
2021/03/10 09:44:47;;;;;;;36.72;24.65;;;8.80;99.30;;;;;;5069440;28;20051;-51
2021/03/10 09:47:18;;;;;;;32.55;23.30;;;8.80;99.50;;;;;;5070175;28;20029;-50
2021/03/10 09:50:03;;;;;;;33.67;23.88;;;8.80;99.30;;;;;;5070277;28;20025;-51
2021/03/10 09:52:39;;;;;;;33.42;24.02;;;8.70;99.50;;;;;;5069641;28;20048;-51
2021/03/10 09:55:11;;;;;;;37.50;25.02;;;8.70;99.70;;;;;;5070484;28;20079;-48
2021/03/10 09:57:37;;;;;;;31.02;22.63;;;8.70;99.50;;;;;;5070307;28;20024;-49
2021/03/10 10:00:16;;;;;;;35.58;23.17;;;8.70;99.80;;;;;;5052266;28;20174;-52
2021/03/10 10:02:46;;;;;;;36.05;23.98;;;8.80;99.40;;;;;;5069818;28;20025;-48
2021/03/10 10:05:19;;;;;;;35.42;24.13;;;8.90;99.50;;;;;;5070077;28;20513;-51
2021/03/10 10:07:45;;;;;;;36.17;23.15;;;9.00;99.40;;;;;;5070019;28;20398;-50
2021/03/10 10:10:10;;;;;;;33.88;22.92;;;9.00;99.50;;;;;;5070595;28;20028;-49
2021/03/10 10:12:47;;;;;;;32.95;22.58;;;8.90;99.10;;;;;;5069504;28;20032;-50
2021/03/10 10:15:15;;;;;;;33.15;23.33;;;9.00;99.50;;;;;;5070289;28;20048;-51
2021/03/10 10:17:44;;;;;;;37.38;23.73;;;9.00;99.20;;;;;;5070099;28;20016;-51
2021/03/10 10:20:11;;;;;;;32.85;22.92;;;9.00;99.20;;;;;;5075224;28;20061;-51
2021/03/10 10:22:37;;;;;;;36.80;23.42;;;9.10;98.80;;;;;;5076470;28;20450;-55
2021/03/10 10:25:04;;;;;;;32.08;22.50;;;9.10;99.10;;;;;;5078586;28;20028;-58
2021/03/10 10:27:30;;;;;;;33.55;22.77;;;9.10;98.80;;;;;;5090014;28;20031;-57
2021/03/10 10:29:55;;;;;;;36.70;25.05;;;9.10;98.90;;;;;;5074675;28;20021;-56
2021/03/10 10:32:21;;;;;;;36.67;23.85;;;9.10;98.90;;;;;;5069778;28;20082;-58
2021/03/10 10:34:49;;;;;;;30.63;21.70;;;9.10;98.80;;;;;;5069085;28;20058;-58
2021/03/10 10:37:15;;;;;;;35.33;22.60;;;9.10;99.10;;;;;;5071506;28;20477;-56
2021/03/10 10:39:40;;;;;;;34.72;23.25;;;9.10;98.90;;;;;;5055483;28;20095;-60
2021/03/10 10:42:06;;;;;;;34.42;23.63;;;9.20;98.80;;;;;;5088636;28;20214;-59
2021/03/10 10:44:32;;;;;;;31.90;21.35;;;9.20;98.70;;;;;;5092640;28;20464;-60
2021/03/10 10:46:57;;;;;;;31.23;20.60;;;9.20;98.70;;;;;;5093614;28;20020;-61
2021/03/10 10:49:23;;;;;;;31.35;21.25;;;9.30;98.10;;;;;;5093386;28;20032;-51
2021/03/10 10:51:48;;;;;;;33.83;21.88;;;9.40;98.00;;;;;;5093604;28;20397;-59
2021/03/10 10:54:14;;;;;;;31.30;20.63;;;9.60;98.10;;;;;;5092499;28;20039;-61
2021/03/10 10:56:39;;;;;;;29.58;20.13;;;9.70;97.70;;;;;;5088347;28;20480;-54
2021/03/10 10:59:05;;;;;;;28.77;20.48;;;9.80;97.50;;;;;;5084744;28;20025;-53
2021/03/10 11:01:30;;;;;;;31.77;21.27;;;9.90;97.50;;;;;;5103650;28;20140;-51
2021/03/10 11:03:56;;;;;;;35.38;21.98;;;9.90;97.00;;;;;;5092359;28;20028;-54
2021/03/10 11:06:21;;;;;;;33.58;22.25;;;9.90;96.70;;;;;;5093558;28;20044;-50
2021/03/10 11:08:47;;;;;;;32.88;21.15;;;9.90;97.10;;;;;;5092991;28;20035;-52
2021/03/10 11:11:12;;;;;;;31.40;21.45;;;9.90;97.00;;;;;;5093508;28;20057;-49
2021/03/10 11:13:38;;;;;;;35.05;22.75;;;10.00;96.80;;;;;;5094898;28;20485;-53
2021/03/10 11:16:04;;;;;;;29.90;20.75;;;10.10;96.80;;;;;;5097930;28;20156;-51
2021/03/10 11:18:29;;;;;;;32.40;20.20;;;10.10;96.70;;;;;;5098234;28;20481;-49
2021/03/10 11:20:55;;;;;;;30.85;19.02;;;10.10;95.70;;;;;;5097595;28;20028;-52
2021/03/10 11:23:20;;;;;;;28.75;19.52;;;10.10;95.80;;;;;;5097105;28;20020;-53
2021/03/10 11:25:45;;;;;;;30.98;20.88;;;10.30;95.80;;;;;;5093713;28;20035;-51
2021/03/10 11:28:11;;;;;;;27.80;18.75;;;10.40;95.30;;;;;;5092335;28;20040;-54
2021/03/10 11:30:37;;;;;;;26.13;18.52;;;10.40;95.00;;;;;;5092706;28;20092;-53
2021/03/10 11:33:02;;;;;;;28.13;18.10;;;10.50;94.80;;;;;;5091627;28;20369;-56
2021/03/10 11:35:28;;;;;;;25.95;17.55;;;10.60;94.30;;;;;;5093061;28;20267;-53
2021/03/10 11:37:54;;;;;;;27.80;17.02;;;10.70;94.10;;;;;;5092375;28;20094;-53
2021/03/10 11:40:19;;;;;;;24.10;16.92;;;10.90;93.80;;;;;;5092218;28;20016;-52
2021/03/10 11:42:45;;;;;;;24.48;17.13;;;11.00;92.70;;;;;;5091101;28;20067;-52
2021/03/10 11:45:11;;;;;;;25.52;17.13;;;11.10;92.60;;;;;;5092491;28;20134;-53
2021/03/10 11:47:37;;;;;;;23.55;15.63;;;11.10;91.80;;;;;;5091579;28;20028;-52
2021/03/10 11:50:04;;;;;;;25.70;16.63;;;11.20;91.90;;;;;;5091534;28;20460;-51
2021/03/10 11:52:29;;;;;;;24.20;17.05;;;11.20;91.30;;;;;;5091413;28;20028;-50
2021/03/10 11:54:55;;;;;;;25.08;16.48;;;11.10;91.40;;;;;;5092383;28;20077;-53
2021/03/10 11:57:20;;;;;;;23.77;16.45;;;11.00;91.80;;;;;;5073186;28;20024;-52
2021/03/10 11:59:46;;;;;;;28.05;17.52;;;11.00;92.10;;;;;;5091787;28;20016;-52
2021/03/10 12:02:11;;;;;;;22.63;16.45;;;11.10;91.80;;;;;;5073418;28;20376;-51
2021/03/10 12:04:37;;;;;;;24.95;16.85;;;11.00;91.40;;;;;;5089810;28;20024;-50
2021/03/10 12:07:02;;;;;;;24.80;17.88;;;10.80;91.70;;;;;;5091183;28;20044;-52
2021/03/10 12:09:28;;;;;;;24.08;16.70;;;10.60;92.00;;;;;;5090973;28;20036;-53
2021/03/10 12:11:53;;;;;;;27.00;17.60;;;10.40;92.50;;;;;;5080070;28;20107;-51
2021/03/10 12:14:20;;;;;;;28.42;18.77;;;10.50;92.90;;;;;;5091868;28;20028;-53
2021/03/10 12:16:45;;;;;;;26.05;17.52;;;10.50;93.00;;;;;;5077333;28;20089;-53
2021/03/10 12:19:11;;;;;;;26.52;18.33;;;10.60;93.10;;;;;;5088401;28;20095;-50
2021/03/10 12:21:36;;;;;;;30.92;19.23;;;10.70;93.00;;;;;;5087747;28;20530;-51
2021/03/10 12:24:02;;;;;;;27.52;18.58;;;10.70;93.00;;;;;;5094378;28;20028;-48
2021/03/10 12:26:28;;;;;;;27.80;18.88;;;10.60;92.90;;;;;;5092151;28;20482;-53
2021/03/10 12:28:53;;;;;;;34.50;20.60;;;10.50;93.20;;;;;;5092579;28;20024;-51
2021/03/10 12:31:19;;;;;;;27.75;19.63;;;10.50;93.30;;;;;;5099161;28;20114;-48
2021/03/10 12:33:44;;;;;;;30.02;20.65;;;10.40;93.30;;;;;;5111673;28;20452;-52
2021/03/10 12:36:10;;;;;;;31.92;21.25;;;10.50;93.50;;;;;;5084576;28;20035;-49
2021/03/10 12:38:35;;;;;;;34.92;22.23;;;10.50;93.30;;;;;;5071152;28;20477;-46
2021/03/10 12:41:01;;;;;;;31.73;21.17;;;10.40;93.80;;;;;;5080760;28;20039;-49